Time;durP1;ratioP1;P1;durP2;ratioP2;P2;SDS_P1;SDS_P2;PMS_P1;PMS_P2;Temp;Humidity;BMP_temperature;BMP_pressure;BME280_temperature;BME280_humidity;BME280_pressure;Samples;Min_cycle;Max_cycle;Signal;HPM_P1;HPM_P2
2021/03/05 00:00:29;;;;;;;13.17;6.20;;;6.60;99.90;;;12.84;89.99;98115.28;5002274;28;20210;-71
2021/03/05 00:02:56;;;;;;;12.03;7.57;;;6.60;99.90;;;12.18;92.52;98129.88;5004075;28;20916;-72
2021/03/05 00:05:23;;;;;;;14.80;8.37;;;6.40;99.90;;;11.62;95.67;98129.69;4996314;28;20253;-71
2021/03/05 00:07:50;;;;;;;14.73;7.87;;;6.20;1.00;;;11.72;93.53;98135.47;5004710;28;20599;-73
2021/03/05 00:10:24;;;;;;;11.23;7.10;;;6.10;99.90;;;11.22;90.47;98144.81;5003424;28;20287;-70
2021/03/05 00:12:51;;;;;;;11.07;7.60;;;5.90;99.90;;;11.81;88.94;98145.75;5001676;28;20194;-72
2021/03/05 00:15:18;;;;;;;13.17;7.67;;;5.70;1.00;;;11.72;88.56;98152.34;5000497;28;20232;-72
2021/03/05 00:17:44;;;;;;;13.33;8.47;;;5.70;1.00;;;10.63;94.93;98148.28;5005104;28;20195;-70
2021/03/05 00:20:13;;;;;;;18.50;10.10;;;;;;;10.43;94.46;98150.81;5004986;28;20212;-69
2021/03/05 00:22:41;;;;;;;17.10;9.63;;;5.40;99.90;;;11.29;90.45;98146.47;5008426;28;20203;-72
2021/03/05 00:25:09;;;;;;;20.50;11.40;;;5.30;1.00;;;10.23;93.54;98161.38;5006738;28;20232;-72
2021/03/05 00:27:36;;;;;;;20.63;11.47;;;;;;;10.39;95.17;98157.56;5007388;28;20225;-72
2021/03/05 00:30:04;;;;;;;20.53;12.30;;;5.10;1.00;;;10.99;91.89;98160.34;4999539;28;20233;-71
2021/03/05 00:32:31;;;;;;;20.57;10.90;;;5.10;1.00;;;11.12;88.21;98158.53;5009062;28;20209;-70
2021/03/05 00:34:58;;;;;;;22.90;12.77;;;5.10;1.00;;;10.58;91.41;98162.19;5004882;28;20229;-70
2021/03/05 00:37:24;;;;;;;20.10;10.67;;;5.00;1.00;;;10.66;89.67;98164.72;5010247;28;20612;-70
2021/03/05 00:39:52;;;;;;;23.77;12.53;;;5.00;1.00;;;10.90;90.36;98172.25;5000709;28;20205;-72
2021/03/05 00:42:18;;;;;;;22.43;12.37;;;4.90;1.00;;;10.51;92.86;98174.69;5000307;28;20216;-71
2021/03/05 00:44:45;;;;;;;24.33;12.63;;;4.80;99.90;;;10.66;91.49;98173.53;5009128;28;20245;-73
2021/03/05 00:47:11;;;;;;;20.80;11.97;;;4.80;1.00;;;10.46;92.75;98180.59;5008948;28;20202;-70
2021/03/05 00:49:38;;;;;;;23.80;12.40;;;4.70;1.00;;;10.07;97.48;98194.69;5005093;28;20625;-70
2021/03/05 00:52:05;;;;;;;21.57;11.90;;;4.70;99.90;;;10.43;91.54;98198.03;5000687;28;20210;-71
2021/03/05 00:54:31;;;;;;;23.27;12.57;;;4.60;97.10;;;10.05;95.74;98186.88;5009898;28;20225;-71
2021/03/05 00:56:59;;;;;;;23.97;12.53;;;;;;;10.07;96.73;98194.69;5009071;28;20672;-71
2021/03/05 00:59:26;;;;;;;23.33;12.80;;;4.20;99.90;;;10.54;94.91;98191.13;5004751;28;20205;-72
2021/03/05 01:01:52;;;;;;;24.67;13.00;;;4.10;1.00;;;10.17;98.33;98196.00;5005091;28;20209;-72
2021/03/05 01:04:18;;;;;;;29.27;14.83;;;4.10;99.90;;;9.97;100.00;98195.81;5010353;28;20217;-72
2021/03/05 01:06:45;;;;;;;26.77;13.93;;;4.10;1.00;;;9.94;96.68;98201.53;5014333;28;20591;-71
2021/03/05 01:09:12;;;;;;;27.97;13.40;;;3.90;99.90;;;9.79;97.84;98206.09;5008082;28;20224;-72
2021/03/05 01:11:38;;;;;;;28.43;14.20;;;3.80;99.90;;;9.79;99.53;98198.09;5004398;28;20234;-71
2021/03/05 01:14:06;;;;;;;27.00;13.83;;;3.80;1.00;;;10.18;97.31;98197.63;5010393;28;20620;-71
2021/03/05 01:16:33;;;;;;;31.00;16.20;;;3.80;1.00;;;9.99;96.04;98212.44;4998835;28;20204;-71
2021/03/05 01:19:00;;;;;;;31.07;15.10;;;3.80;1.00;;;9.80;96.82;98215.75;5007618;28;20290;-71
2021/03/05 01:21:26;;;;;;;35.23;16.77;;;3.70;1.00;;;9.67;95.66;98212.97;5005306;28;20203;-71
2021/03/05 01:23:53;;;;;;;29.87;14.23;;;3.60;99.90;;;9.61;99.17;98220.88;5004306;28;20206;-71
2021/03/05 01:26:20;;;;;;;30.50;15.97;;;3.50;1.00;;;8.63;100.00;98222.34;5004533;28;20229;-71
2021/03/05 01:28:46;;;;;;;27.83;13.97;;;3.50;99.90;;;9.56;96.60;98228.63;5002447;28;20592;-72
2021/03/05 01:31:14;;;;;;;33.40;15.93;;;3.50;1.00;;;9.13;98.17;98221.59;5004476;28;20212;-72
2021/03/05 01:33:41;;;;;;;34.77;15.93;;;3.50;1.00;;;9.19;100.00;98226.16;5006438;28;20199;-73
2021/03/05 01:36:08;;;;;;;34.90;15.47;;;3.50;1.00;;;8.92;100.00;98226.81;5003739;28;20228;-71
2021/03/05 01:38:35;;;;;;;36.10;15.57;;;3.40;99.90;;;9.01;99.61;98223.91;5007348;28;20545;-72
2021/03/05 01:41:02;;;;;;;33.43;16.57;;;3.30;1.00;;;8.24;100.00;98227.09;5007425;28;20208;-72
2021/03/05 01:43:32;;;;;;;32.27;15.03;;;3.30;99.90;;;9.87;98.18;98229.13;4998116;28;20588;-72
2021/03/05 01:45:59;;;;;;;40.07;15.70;;;3.30;1.00;;;9.39;98.80;98228.03;5009929;28;20239;-71
2021/03/05 01:48:28;;;;;;;32.30;15.13;;;3.30;1.00;;;9.38;100.00;98229.03;5003470;28;20236;-72
2021/03/05 01:51:10;;;;;;;36.37;16.43;;;3.30;1.00;;;8.78;100.00;98239.13;5006837;28;20239;-72
2021/03/05 01:53:37;;;;;;;31.50;14.50;;;3.10;1.00;;;9.27;100.00;98229.53;5003839;28;20192;-71
2021/03/05 01:56:05;;;;;;;34.50;14.87;;;;;;;13.68;72.79;98249.97;5002450;28;20231;-71
2021/03/05 01:58:32;;;;;;;36.13;15.10;;;;;;;13.23;70.19;98240.25;4999005;28;20195;-71
2021/03/05 02:01:01;;;;;;;33.87;14.57;;;;;;;12.18;73.96;98234.22;5007778;28;20210;-71
2021/03/05 02:03:30;;;;;;;36.43;15.60;;;;;;;11.73;77.63;98236.88;5012118;28;20205;-72
2021/03/05 02:05:57;;;;;;;39.30;16.13;;;;;;;10.98;81.81;98233.47;5002163;28;20230;-71
2021/03/05 02:08:24;;;;;;;34.33;14.93;;;;;;;11.59;79.08;98227.16;5002334;28;20226;-71
2021/03/05 02:10:51;;;;;;;38.90;16.50;;;;;;;11.93;77.18;98237.72;5005395;28;20204;-71
2021/03/05 02:13:18;;;;;;;34.40;15.60;;;;;;;11.76;76.89;98227.63;5011264;28;20215;-71
2021/03/05 02:15:46;;;;;;;35.77;16.40;;;;;;;11.29;80.95;98228.47;5000927;28;20227;-71
2021/03/05 02:18:20;;;;;;;36.63;16.10;;;;;;;11.07;81.24;98232.28;5003777;28;20586;-70
2021/03/05 02:21:07;;;;;;;45.57;17.57;;;;;;;11.46;78.71;98232.44;5011159;28;20291;-71
2021/03/05 02:23:53;;;;;;;45.53;17.37;;;;;;;12.20;73.76;98239.38;5001976;28;20266;-71
2021/03/05 02:26:54;;;;;;;39.70;17.70;;;;;;;10.51;82.55;98239.53;5004976;28;20226;-71
2021/03/05 02:29:57;;;;;;;35.23;16.73;;;;;;;11.61;78.58;98237.66;5014245;28;20223;-71
2021/03/05 02:32:30;;;;;;;36.20;14.90;;;;;;;11.82;74.76;98242.84;5004377;28;20206;-71
2021/03/05 02:34:57;;;;;;;40.10;16.57;;;;;;;10.27;83.19;98240.00;5004089;28;20234;-72
2021/03/05 02:37:24;;;;;;;36.17;16.50;;;;;;;11.49;77.39;98254.25;5004982;28;20201;-71
2021/03/05 02:39:58;;;;;;;34.30;15.10;;;;;;;11.32;77.36;98258.28;5007904;28;20210;-70
2021/03/05 02:42:28;;;;;;;39.43;15.80;;;;;;;10.38;83.93;98256.50;5005948;28;20743;-71
2021/03/05 02:44:59;;;;;;;33.00;14.93;;;;;;;11.35;79.64;98263.22;5001426;28;20235;-71
2021/03/05 02:47:29;;;;;;;35.67;15.10;;;;;;;10.47;81.90;98245.47;5006479;28;20201;-70
2021/03/05 02:49:56;;;;;;;36.17;16.27;;;;;;;11.13;81.60;98260.88;5005843;28;21106;-70
2021/03/05 02:52:26;;;;;;;33.93;14.63;;;;;;;11.70;76.52;98255.97;5006222;28;20207;-71
2021/03/05 02:54:54;;;;;;;39.77;17.40;;;;;;;10.20;81.69;98251.63;5004187;28;20227;-70
2021/03/05 02:57:23;;;;;;;39.77;16.17;;;;;;;11.09;76.63;98273.81;5003851;28;20215;-70
2021/03/05 02:59:51;;;;;;;36.33;16.17;;;;;;;10.98;76.37;98281.53;5002418;28;20206;-71
2021/03/05 03:02:23;;;;;;;39.60;15.07;;;;;;;11.01;74.61;98278.47;5003631;28;20295;-70
2021/03/05 03:04:51;;;;;;;39.43;16.00;;;;;;;10.46;78.98;98278.50;5002487;28;20233;-70
2021/03/05 03:07:18;;;;;;;37.67;15.27;;;;;;;10.67;79.31;98281.13;5004855;28;20210;-71
2021/03/05 03:09:44;;;;;;;32.10;14.47;;;;;;;12.01;72.87;98287.53;5007839;28;20220;-71
2021/03/05 03:12:12;;;;;;;37.97;16.33;;;;;;;11.65;73.81;98290.50;5001576;28;20209;-73
2021/03/05 03:14:39;;;;;;;36.10;15.50;;;;;;;11.92;73.99;98294.09;5002901;28;20235;-70
2021/03/05 03:17:07;;;;;;;30.83;13.30;;;;;;;11.63;73.21;98289.06;5000793;28;20202;-71
2021/03/05 03:19:34;;;;;;;34.73;14.87;;;;;;;10.90;79.43;98281.72;5002000;28;20208;-71
2021/03/05 03:22:03;;;;;;;30.50;13.93;;;;;;;11.59;75.21;98285.97;5002852;28;20589;-70
2021/03/05 03:24:31;;;;;;;33.03;15.50;;;;;;;10.78;76.49;98299.28;5002104;28;20234;-70
2021/03/05 03:26:59;;;;;;;32.77;14.37;;;;;;;11.62;74.06;98290.09;4994466;28;20215;-71
2021/03/05 03:29:26;;;;;;;33.87;15.03;;;;;;;10.52;78.51;98305.25;5009475;28;20227;-70
2021/03/05 03:31:53;;;;;;;33.53;15.73;;;;;;;10.89;76.82;98304.06;5001703;28;20251;-70
2021/03/05 03:34:21;;;;;;;30.03;14.00;;;;;;;11.12;74.63;98312.66;5008411;28;20750;-72
2021/03/05 03:36:49;;;;;;;28.97;13.33;;;;;;;10.81;80.71;98306.91;5007563;28;20207;-71
2021/03/05 03:39:16;;;;;;;30.27;14.70;;;;;;;11.31;75.58;98318.09;5002462;28;20214;-71
2021/03/05 03:41:43;;;;;;;29.53;14.23;;;;;;;10.49;78.99;98307.47;4993158;28;20204;-71
2021/03/05 03:44:12;;;;;;;29.27;13.40;;;;;;;10.77;78.20;98317.16;5004135;28;20214;-74
2021/03/05 03:46:42;;;;;;;34.93;15.13;;;;;;;10.27;82.51;98314.69;5002631;28;20238;-71
2021/03/05 03:49:15;;;;;;;31.97;14.50;;;;;;;9.33;80.44;98329.97;5002126;28;20224;-71
2021/03/05 03:51:44;;;;;;;28.53;14.27;;;;;;;5.95;100.00;98331.19;5005021;28;20598;-70
2021/03/05 03:54:14;;;;;;;32.50;14.47;;;;;;;9.27;100.00;98327.22;5004269;28;20205;-73
2021/03/05 03:56:43;;;;;;;27.10;13.53;;;;;;;9.88;96.95;98326.75;5011576;28;20202;-71
2021/03/05 03:59:12;;;;;;;32.90;15.47;;;;;;;9.18;98.53;98339.00;5005262;28;20203;-71
2021/03/05 04:01:41;;;;;;;25.83;12.57;;;;;;;5.98;100.00;98344.13;5010069;28;20199;-71
2021/03/05 04:04:09;;;;;;;25.87;13.07;;;;;;;7.15;100.00;98331.03;5005613;28;20205;-70
2021/03/05 04:06:37;;;;;;;23.10;12.13;;;;;;;5.70;100.00;98341.91;5001943;28;20208;-70
2021/03/05 04:09:05;;;;;;;21.90;11.10;;;;;;;5.44;100.00;98327.94;5001466;28;20223;-70
2021/03/05 04:11:32;;;;;;;19.90;10.83;;;;;;;5.48;100.00;98347.81;5002973;28;20214;-70
2021/03/05 04:14:00;;;;;;;19.43;11.30;;;;;;;5.45;100.00;98342.81;5002157;28;20204;-70
2021/03/05 04:16:27;;;;;;;21.57;11.23;;;;;;;5.65;100.00;98353.00;5004560;28;20710;-71
2021/03/05 04:18:54;;;;;;;19.77;9.23;;;;;;;5.45;100.00;98345.47;5007462;28;20661;-73
2021/03/05 04:21:23;;;;;;;18.10;10.17;;;;;;;5.85;100.00;98351.72;4997923;28;20203;-70
2021/03/05 04:23:50;;;;;;;18.90;10.33;;;;;;;5.84;100.00;98350.06;5004468;28;20207;-71
2021/03/05 04:26:16;;;;;;;20.53;10.47;;;;;;;5.71;100.00;98351.50;5009976;28;20575;-70
2021/03/05 04:28:43;;;;;;;17.93;10.27;;;;;;;5.71;100.00;98352.34;5003573;28;20285;-70
2021/03/05 04:31:11;;;;;;;18.77;9.50;;;;;;;5.65;100.00;98354.78;5002947;28;20200;-72
2021/03/05 04:33:38;;;;;;;20.17;9.80;;;;;;;5.50;100.00;98357.25;5003516;28;20195;-72
2021/03/05 04:36:05;;;;;;;19.60;10.60;;;;;;;5.39;100.00;98365.44;4996133;28;20258;-71
2021/03/05 04:38:32;;;;;;;21.00;9.80;;;;;;;5.48;100.00;98356.56;4992779;28;20192;-72
2021/03/05 04:40:59;;;;;;;18.73;9.20;;;;;;;5.80;100.00;98356.69;5007434;28;20207;-71
2021/03/05 04:43:26;;;;;;;22.60;11.03;;;;;;;5.49;100.00;98357.41;5004421;28;20215;-72
2021/03/05 04:45:53;;;;;;;21.77;11.47;;;;;;;5.68;100.00;98367.72;4998020;28;20235;-71
2021/03/05 04:48:21;;;;;;;20.80;10.80;;;;;;;5.76;100.00;98370.38;5008806;28;20585;-69
2021/03/05 04:50:47;;;;;;;22.13;11.60;;;;;;;5.85;100.00;98372.91;5000321;28;20607;-69
2021/03/05 04:53:14;;;;;;;22.50;10.83;;;;;;;6.04;100.00;98362.00;5009902;28;20215;-71
2021/03/05 04:55:41;;;;;;;19.23;10.63;;;;;;;5.97;100.00;98368.13;5001560;28;20227;-71
2021/03/05 04:58:08;;;;;;;21.87;10.67;;;;;;;5.80;100.00;98377.88;5000456;28;20286;-71
2021/03/05 05:00:35;;;;;;;18.87;10.20;;;;;;;5.74;100.00;98373.19;5000739;28;20195;-71
2021/03/05 05:03:02;;;;;;;19.50;9.77;;;;;;;5.66;100.00;98375.81;5000312;28;20208;-71
2021/03/05 05:05:29;;;;;;;17.87;9.60;;;;;;;5.84;100.00;98373.09;4992357;28;20717;-73
2021/03/05 05:07:56;;;;;;;19.83;10.30;;;;;;;5.93;100.00;98372.94;5006616;28;20204;-71
2021/03/05 05:10:24;;;;;;;19.20;10.70;;;;;;;5.82;100.00;98380.34;5003908;28;20207;-71
2021/03/05 05:12:51;;;;;;;17.33;9.47;;;;;;;5.80;100.00;98382.34;5003653;28;20675;-72
2021/03/05 05:15:18;;;;;;;21.20;10.60;;;;;;;5.89;100.00;98384.03;5000126;28;20231;-71
2021/03/05 05:17:44;;;;;;;22.93;11.17;;;;;;;5.91;100.00;98377.56;4999532;28;20214;-71
2021/03/05 05:20:12;;;;;;;20.07;9.77;;;;;;;5.93;100.00;98383.53;5003890;28;20196;-71
2021/03/05 05:22:40;;;;;;;19.13;9.83;;;;;;;5.75;100.00;98381.97;5003647;28;20198;-71
2021/03/05 05:25:08;;;;;;;21.50;10.13;;;;;;;5.82;100.00;98391.78;5010960;28;20316;-71
2021/03/05 05:27:35;;;;;;;19.47;9.47;;;;;;;5.74;100.00;98388.25;4995055;28;20205;-71
2021/03/05 05:30:02;;;;;;;18.03;9.70;;;;;;;5.94;100.00;98394.97;5004879;28;20241;-72
2021/03/05 05:32:29;;;;;;;19.13;9.60;;;;;;;5.53;100.00;98387.88;5000853;28;20258;-71
2021/03/05 05:34:55;;;;;;;17.80;9.47;;;;;;;5.64;100.00;98403.44;5004049;28;20238;-71
2021/03/05 05:37:22;;;;;;;21.77;10.90;;;;;;;5.43;100.00;98400.41;5001775;28;20253;-71
2021/03/05 05:39:50;;;;;;;21.20;10.93;;;;;;;5.41;100.00;98403.19;5005326;28;20706;-71
2021/03/05 05:42:17;;;;;;;19.70;9.77;;;;;;;5.63;100.00;98405.25;5009729;28;20214;-71
2021/03/05 05:44:44;;;;;;;19.03;9.07;;;;;;;5.88;100.00;98400.88;5005176;28;20234;-71
2021/03/05 05:47:15;;;;;;;19.67;10.37;;;;;;;5.72;100.00;98414.88;5005640;28;20214;-71
2021/03/05 05:49:43;;;;;;;17.03;8.80;;;;;;;5.73;100.00;98413.09;5011836;28;20223;-72
2021/03/05 05:52:12;;;;;;;17.87;9.47;;;;;;;5.59;100.00;98409.19;5006407;28;20214;-72
2021/03/05 05:54:40;;;;;;;20.43;9.27;;;;;;;5.32;100.00;98417.38;5009744;28;20266;-72
2021/03/05 05:57:08;;;;;;;19.53;9.50;;;;;;;5.85;100.00;98423.22;5003318;28;20571;-72
2021/03/05 05:59:35;;;;;;;21.50;10.27;;;;;;;5.61;100.00;98423.13;5006225;28;20203;-71
2021/03/05 06:02:04;;;;;;;19.37;9.43;;;;;;;5.79;100.00;98423.03;5008616;28;20204;-71
2021/03/05 06:04:30;;;;;;;17.83;9.10;;;;;;;5.97;100.00;98427.25;5008287;28;20234;-70
2021/03/05 06:06:57;;;;;;;22.40;10.13;;;;;;;5.97;100.00;98429.91;5007497;28;20664;-72
2021/03/05 06:09:24;;;;;;;18.03;9.23;;;;;;;5.92;100.00;98432.19;5009954;28;20219;-70
2021/03/05 06:11:51;;;;;;;24.27;10.03;;;;;;;5.95;100.00;98441.63;5011552;28;20680;-72
2021/03/05 06:14:21;;;;;;;17.37;9.13;;;;;;;5.88;100.00;98443.25;5011978;28;20261;-74
2021/03/05 06:16:56;;;;;;;19.73;9.73;;;;;;;5.84;100.00;98441.94;5014491;28;20207;-72
2021/03/05 06:19:26;;;;;;;18.40;9.30;;;;;;;5.51;100.00;98438.31;5008129;28;20617;-73
2021/03/05 06:21:53;;;;;;;21.23;9.97;;;;;;;5.57;100.00;98436.81;5014653;28;20211;-73
2021/03/05 06:24:20;;;;;;;18.17;9.70;;;;;;;5.83;100.00;98448.22;5009419;28;20203;-73
2021/03/05 06:26:55;;;;;;;28.20;10.67;;;;;;;5.71;100.00;98446.81;5009291;28;20207;-74
2021/03/05 06:29:24;;;;;;;22.20;9.70;;;;;;;5.51;100.00;98462.13;5005130;28;20222;-73
2021/03/05 06:31:59;;;;;;;22.03;10.20;;;;;;;5.44;100.00;98460.28;5012747;28;20207;-73
2021/03/05 06:34:26;;;;;;;21.03;9.40;;;;;;;5.41;100.00;98452.63;5004751;28;20213;-75
2021/03/05 06:37:04;;;;;;;19.60;9.10;;;;;;;5.94;100.00;98461.19;5018757;28;20907;-76
2021/03/05 06:39:32;;;;;;;22.13;9.70;;;;;;;5.51;100.00;98471.88;5009055;28;20207;-76
2021/03/05 06:42:04;;;;;;;19.10;10.03;;;;;;;5.62;100.00;98476.88;5011266;28;20606;-74
2021/03/05 06:44:32;;;;;;;19.23;9.93;;;;;;;5.79;100.00;98481.28;5018353;28;20258;-76
2021/03/05 06:47:08;;;;;;;18.50;9.23;;;;;;;5.53;100.00;98483.16;5018942;28;20267;-80
2021/03/05 06:49:35;;;;;;;19.83;9.77;;;;;;;5.82;100.00;98475.69;5019037;28;20234;-75
2021/03/05 06:52:02;;;;;;;18.30;9.33;;;;;;;5.79;100.00;98482.09;5009765;28;20257;-79
2021/03/05 06:54:33;;;;;;;19.73;9.67;;;;;;;5.82;100.00;98496.88;5009762;28;20210;-75
2021/03/05 06:57:00;;;;;;;21.40;10.17;;;;;;;5.59;100.00;98493.91;4996916;28;20208;-74
2021/03/05 06:59:37;;;;;;;22.27;9.83;;;;;;;6.09;100.00;98494.81;4996027;28;20206;-75
2021/03/05 07:02:05;;;;;;;20.33;9.87;;;;;;;5.89;100.00;98500.56;5002424;28;20203;-74
2021/03/05 07:04:34;;;;;;;19.80;10.07;;;;;;;5.85;100.00;98502.66;4998401;28;20258;-76
2021/03/05 07:07:02;;;;;;;17.30;8.50;;;;;;;5.69;100.00;98507.06;5006051;28;20566;-74
2021/03/05 07:09:30;;;;;;;20.37;9.07;;;;;;;5.80;100.00;98512.94;5004736;28;20241;-77
2021/03/05 07:11:58;;;;;;;22.73;9.97;;;;;;;5.91;100.00;98512.66;5012711;28;20298;-73
2021/03/05 07:14:30;;;;;;;19.80;9.97;;;;;;;6.03;100.00;98516.66;5002073;28;20614;-74
2021/03/05 07:16:58;;;;;;;22.90;10.67;;;;;;;5.65;100.00;98511.00;5010006;28;20203;-74
2021/03/05 07:19:26;;;;;;;18.97;9.77;;;;;;;5.99;100.00;98511.84;5005278;28;20671;-76
2021/03/05 07:21:54;;;;;;;18.47;9.37;;;;;;;5.50;100.00;98525.81;5004758;28;20673;-74
2021/03/05 07:24:22;;;;;;;21.93;9.73;;;;;;;5.97;100.00;98521.75;5005820;28;20307;-74
2021/03/05 07:26:53;;;;;;;18.27;9.00;;;;;;;5.84;100.00;98532.00;5011700;28;20207;-74
2021/03/05 07:29:22;;;;;;;19.63;9.07;;;;;;;5.85;100.00;98531.00;5010181;28;20224;-73
2021/03/05 07:31:59;;;;;;;20.57;9.23;;;;;;;5.78;100.00;98532.59;5007945;28;20208;-77
2021/03/05 07:34:27;;;;;;;21.97;9.83;;;;;;;5.83;100.00;98539.09;5005163;28;20222;-82
2021/03/05 07:36:57;;;;;;;21.67;10.53;;;;;;;5.70;100.00;98543.13;5010961;28;20200;-80
2021/03/05 07:39:30;;;;;;;20.67;8.93;;;;;;;5.86;100.00;98543.25;5007619;28;20215;-73
2021/03/05 07:41:57;;;;;;;19.27;8.83;;;;;;;6.25;100.00;98545.22;5014674;28;20210;-82
2021/03/05 07:44:25;;;;;;;19.97;9.07;;;;;;;6.24;100.00;98554.16;5013328;28;20739;-75
2021/03/05 07:46:53;;;;;;;21.30;9.87;;;;;;;6.04;100.00;98555.41;5002210;28;20208;-75
2021/03/05 07:49:27;;;;;;;19.33;8.60;;;;;;;6.48;100.00;98551.59;5009609;28;20594;-76
2021/03/05 07:51:55;;;;;;;19.90;9.20;;;;;;;6.13;100.00;98567.72;5000998;28;20207;-76
2021/03/05 07:54:44;;;;;;;18.90;9.47;;;;;;;6.20;100.00;98560.75;5009903;28;20285;-76
2021/03/05 07:57:44;;;;;;;18.23;9.17;;;;;;;6.24;100.00;98570.06;5003864;28;20205;-76
2021/03/05 08:00:27;;;;;;;22.97;9.77;;;;;;;5.97;100.00;98567.63;4994568;28;20193;-76
2021/03/05 08:02:57;;;;;;;18.67;9.17;;;;;;;5.85;100.00;98566.22;4985135;28;20249;-75
2021/03/05 08:05:39;;;;;;;21.13;9.27;;;;;;;6.41;100.00;98563.00;5009247;28;20393;-75
2021/03/05 08:08:23;;;;;;;18.80;9.23;;;;;;;6.09;100.00;98576.94;5004692;28;20239;-77
2021/03/05 08:10:55;;;;;;;17.97;8.90;;;;;;;6.40;100.00;98571.94;5005292;28;20219;-75
2021/03/05 08:13:48;;;;;;;21.73;8.40;;;;;;;6.25;100.00;98581.50;4999625;28;20658;-75
2021/03/05 08:16:40;;;;;;;15.97;8.00;;;;;;;6.16;100.00;98590.41;5009664;28;20233;-76
2021/03/05 08:19:44;;;;;;;16.40;8.43;;;;;;;6.18;100.00;98588.41;5002024;28;20205;-76
2021/03/05 08:22:12;;;;;;;17.40;8.40;;;;;;;5.47;100.00;98593.13;5005690;28;20220;-76
2021/03/05 08:24:42;;;;;;;18.30;8.43;;;;;;;6.28;100.00;98589.97;5006210;28;20223;-75
2021/03/05 08:27:28;;;;;;;17.37;7.90;;;;;;;6.31;100.00;98594.13;5008831;28;20230;-75
2021/03/05 08:30:02;;;;;;;15.37;7.80;;;;;;;6.37;100.00;98598.78;5007976;28;20230;-78
2021/03/05 08:32:57;;;;;;;17.17;8.03;;;;;;;6.08;100.00;98601.78;5010035;28;20727;-75
2021/03/05 08:35:43;;;;;;;17.20;7.83;;;;;;;6.50;100.00;98599.16;5007173;28;20241;-76
2021/03/05 08:38:13;;;;;;;16.17;7.87;;;;;;;6.51;100.00;98601.66;5003409;28;20741;-76
2021/03/05 08:40:46;;;;;;;16.73;7.83;;;;;;;6.21;100.00;98607.50;5002808;28;20743;-76
2021/03/05 08:43:21;;;;;;;18.23;7.93;;;;;;;6.55;100.00;98610.91;5003116;28;20191;-75
2021/03/05 08:45:49;;;;;;;18.70;7.50;;;;;;;6.32;100.00;98603.72;5009837;28;20239;-77
2021/03/05 08:48:34;;;;;;;14.10;6.70;;;;;;;6.21;100.00;98615.44;5005185;28;20204;-74
2021/03/05 08:51:02;;;;;;;15.17;7.83;;;;;;;6.32;100.00;98620.47;5003675;28;20392;-73
2021/03/05 08:53:32;;;;;;;17.17;7.60;;;;;;;6.36;100.00;98616.50;5000876;28;20253;-73
2021/03/05 08:55:59;;;;;;;15.57;7.17;;;;;;;6.33;100.00;98616.81;5003691;28;20238;-75
2021/03/05 08:58:26;;;;;;;13.80;7.07;;;;;;;6.31;100.00;98624.09;5002418;28;20196;-75
2021/03/05 09:00:52;;;;;;;18.77;8.17;;;;;;;5.92;100.00;98622.91;5006559;28;20208;-76
2021/03/05 09:03:19;;;;;;;14.77;7.37;;;;;;;6.31;100.00;98624.09;5004092;28;20203;-75
2021/03/05 09:05:47;;;;;;;18.23;7.87;;;;;;;6.46;100.00;98619.03;4997010;28;20237;-75
2021/03/05 09:08:16;;;;;;;17.43;7.77;;;;;;;6.11;100.00;98629.78;5000944;28;20211;-76
2021/03/05 09:10:46;;;;;;;14.33;7.33;;;;;;;6.33;100.00;98635.38;5006387;28;20208;-76
2021/03/05 09:13:14;;;;;;;23.60;7.60;;;;;;;6.29;100.00;98628.72;4998173;28;20203;-76
2021/03/05 09:15:45;;;;;;;17.83;7.83;;;;;;;6.60;100.00;98632.47;5011063;28;20224;-74
2021/03/05 09:18:13;;;;;;;20.00;8.03;;;;;;;6.41;100.00;98634.56;5010276;28;20258;-70
2021/03/05 09:20:44;;;;;;;16.43;7.83;;;;;;;6.35;100.00;98628.06;5009422;28;20204;-70
2021/03/05 09:23:19;;;;;;;14.07;7.13;;;;;;;6.40;100.00;98638.22;5005903;28;20217;-74
2021/03/05 09:25:51;;;;;;;16.20;7.30;;;;;;;6.37;100.00;98642.03;5010700;28;20285;-76
2021/03/05 09:28:19;;;;;;;15.20;7.33;;;;;;;6.73;100.00;98642.63;5015501;28;20577;-73
2021/03/05 09:30:50;;;;;;;12.97;7.07;;;;;;;6.80;100.00;98648.97;5010998;28;20204;-74
2021/03/05 09:33:17;;;;;;;14.93;7.80;;;;;;;7.14;100.00;98644.38;5016986;28;20210;-79
2021/03/05 09:35:44;;;;;;;14.80;7.53;;;;;;;7.14;100.00;98642.56;5034956;28;20220;-80
2021/03/05 09:38:16;;;;;;;14.23;7.23;;;;;;;7.19;100.00;98639.41;5031254;28;20192;-79
2021/03/05 09:40:43;;;;;;;14.83;7.10;;;;;;;7.11;100.00;98637.56;5025518;28;20201;-78
2021/03/05 09:43:16;;;;;;;16.07;7.33;;;;;;;6.51;100.00;98643.22;5011455;28;20704;-73
2021/03/05 09:45:47;;;;;;;13.23;6.87;;;;;;;7.16;100.00;98639.75;5004956;28;20224;-76
2021/03/05 09:48:27;;;;;;;14.17;6.87;;;;;;;7.04;100.00;98647.19;5011478;28;20197;-73
2021/03/05 09:50:58;;;;;;;26.00;6.47;;;;;;;7.08;100.00;98650.34;5014963;28;20262;-73
2021/03/05 09:53:29;;;;;;;14.13;6.87;;;;;;;7.21;100.00;98654.19;5005310;28;20194;-73
2021/03/05 09:55:59;;;;;;;15.13;6.73;;;;;;;7.29;100.00;98659.50;5013942;28;20241;-75
2021/03/05 09:58:27;;;;;;;45.03;9.07;;;;;;;6.40;100.00;98668.19;5011530;28;20200;-73
2021/03/05 10:00:54;;;;;;;12.93;6.50;;;;;;;7.21;100.00;98659.50;5012947;28;20201;-74
2021/03/05 10:03:21;;;;;;;29.30;7.50;;;;;;;7.25;100.00;98665.31;5005890;28;20243;-74
2021/03/05 10:05:48;;;;;;;10.87;5.90;;;4.10;99.90;;;6.79;100.00;98664.03;5009714;28;20233;-74
2021/03/05 10:08:21;;;;;;;101.23;14.63;;;4.10;99.90;;;7.41;100.00;98671.47;5012477;28;20291;-76
2021/03/05 10:11:03;;;;;;;14.43;6.47;;;4.30;99.90;;;7.40;100.00;98667.16;5010542;28;20213;-76
2021/03/05 10:13:48;;;;;;;10.53;5.80;;;4.30;99.90;;;6.35;100.00;98669.69;5014565;28;20676;-77
2021/03/05 10:16:20;;;;;;;11.80;5.17;;;;;;;6.84;100.00;98663.56;5005470;28;20213;-82
2021/03/05 10:18:49;;;;;;;11.40;5.73;;;3.70;99.90;;;6.72;100.00;98670.16;5010814;28;20232;-75
2021/03/05 10:21:19;;;;;;;11.43;5.87;;;3.80;99.90;;;7.37;100.00;98669.31;5005235;28;20305;-78
2021/03/05 10:23:46;;;;;;;12.00;6.17;;;4.00;99.90;;;7.70;100.00;98663.84;5004114;28;20223;-76
2021/03/05 10:26:16;;;;;;;12.93;5.87;;;4.30;99.90;;;7.38;100.00;98679.78;5013703;28;20224;-75
2021/03/05 10:28:45;;;;;;;13.33;6.37;;;4.40;99.90;;;7.79;100.00;98678.78;5030563;28;20242;-81
2021/03/05 10:31:11;;;;;;;13.40;6.57;;;4.40;99.90;;;7.44;100.00;98681.75;5033124;28;20206;-78
2021/03/05 10:33:41;;;;;;;10.63;5.63;;;4.40;99.90;;;7.93;100.00;98672.78;5029348;28;20201;-77
2021/03/05 10:36:09;;;;;;;16.50;6.80;;;;;;;7.77;100.00;98674.63;5016112;28;20317;-75
2021/03/05 10:38:36;;;;;;;16.00;6.13;;;;;;;8.26;100.00;98681.53;5009657;28;20253;-77
2021/03/05 10:41:05;;;;;;;13.23;6.17;;;5.00;99.90;;;8.19;100.00;98694.69;5019365;28;20203;-75
2021/03/05 10:43:33;;;;;;;14.73;6.07;;;5.00;99.90;;;8.49;100.00;98699.28;5012990;28;20828;-77
2021/03/05 10:46:01;;;;;;;10.83;6.07;;;5.00;99.90;;;7.96;100.00;98698.22;5001997;28;20237;-73
2021/03/05 10:48:27;;;;;;;10.57;5.43;;;4.80;99.90;;;7.68;100.00;98703.03;5013741;28;20290;-74
2021/03/05 10:50:54;;;;;;;11.20;5.77;;;4.60;99.90;;;7.20;100.00;98710.09;5004311;28;20210;-72
2021/03/05 10:53:20;;;;;;;10.77;6.07;;;4.40;99.90;;;7.41;100.00;98705.97;5008795;28;20204;-75
2021/03/05 10:55:48;;;;;;;14.70;5.97;;;4.40;99.90;;;7.85;100.00;98717.13;5017004;28;20244;-75
2021/03/05 10:58:15;;;;;;;11.27;5.53;;;4.40;99.90;;;7.25;100.00;98715.75;5003895;28;20240;-76
2021/03/05 11:00:42;;;;;;;13.20;6.00;;;4.30;99.90;;;7.61;100.00;98715.28;5013164;28;20226;-72
2021/03/05 11:03:09;;;;;;;12.47;6.10;;;4.40;99.90;;;7.57;100.00;98713.97;5011536;28;20217;-74
2021/03/05 11:05:37;;;;;;;15.83;6.13;;;4.40;99.90;;;7.14;100.00;98722.19;5006990;28;20654;-74
2021/03/05 11:08:07;;;;;;;11.60;6.00;;;;;;;7.37;100.00;98717.91;5011964;28;20284;-74
2021/03/05 11:10:37;;;;;;;13.37;6.33;;;;;;;7.54;100.00;98719.63;5007827;28;20229;-73
2021/03/05 11:13:05;;;;;;;11.10;6.13;;;;;;;6.73;100.00;98727.50;5013520;28;20244;-72
2021/03/05 11:15:33;;;;;;;16.53;6.43;;;;;;;7.73;100.00;98718.47;5002364;28;20232;-73